Time;durP1;ratioP1;P1;durP2;ratioP2;P2;SDS_P1;SDS_P2;PMS_P1;PMS_P2;Temp;Humidity;BMP_temperature;BMP_pressure;BME280_temperature;BME280_humidity;BME280_pressure;Samples;Min_cycle;Max_cycle;Signal;HPM_P1;HPM_P2
2023/10/19 00:00:56;;;;;;;0.60;0.60;;;;;;;6.51;100.00;94702.16;5117820;27;20661;-74
2023/10/19 00:03:25;;;;;;;0.43;0.43;;;;;;;6.41;100.00;94698.59;5128485;27;20597;-73
2023/10/19 00:05:51;;;;;;;0.20;0.20;;;;;;;6.48;100.00;94692.78;5117578;27;20633;-73
2023/10/19 00:08:19;;;;;;;0.20;0.20;;;;;;;6.45;100.00;94689.91;5121126;27;20204;-74
2023/10/19 00:10:50;;;;;;;0.20;0.20;;;;;;;6.57;100.00;94682.91;5100554;28;20210;-74
2023/10/19 00:13:16;;;;;;;0.40;0.40;;;;;;;6.57;100.00;94674.03;5120131;27;20189;-75
2023/10/19 00:15:48;;;;;;;2.65;0.60;;;;;;;6.63;100.00;94678.22;5123597;27;20694;-74
2023/10/19 00:18:22;;;;;;;0.20;0.20;;;;;;;6.66;100.00;94673.03;5117421;27;20205;-75
2023/10/19 00:20:52;;;;;;;0.15;0.15;;;;;;;6.73;100.00;94672.63;5116209;27;20543;-74
2023/10/19 00:23:24;;;;;;;0.68;0.68;;;;;;;6.67;100.00;94658.50;5125248;27;20535;-73
2023/10/19 00:25:51;;;;;;;0.75;0.75;;;;;;;6.64;100.00;94658.28;5124861;27;20196;-73
2023/10/19 00:28:18;;;;;;;0.20;0.20;;;;;;;6.62;100.00;94657.78;5113033;27;20194;-73
2023/10/19 00:30:49;;;;;;;0.40;0.40;;;;;;;6.48;100.00;94652.44;5120346;27;20568;-73
2023/10/19 00:33:19;;;;;;;0.30;0.30;;;;;;;6.58;100.00;94659.47;5126432;27;20221;-73
2023/10/19 00:35:56;;;;;;;0.20;0.20;;;;;;;6.66;100.00;94658.78;5128155;28;20250;-73
2023/10/19 00:41:19;;;;;;;0.55;0.55;;;;;;;6.43;100.00;94663.28;5122293;28;20301;-74
2023/10/19 00:43:46;;;;;;;0.20;0.20;;;;;;;6.42;100.00;94661.72;5121045;28;20204;-73
2023/10/19 00:46:20;;;;;;;0.32;0.32;;;;;;;6.37;100.00;94654.53;5115743;28;20625;-74
2023/10/19 00:48:50;;;;;;;0.60;0.52;;;;;;;6.42;100.00;94638.28;5125227;28;20192;-73
2023/10/19 00:54:08;;;;;;;0.20;0.20;;;;;;;6.56;100.00;94645.56;5104101;28;20250;-73
2023/10/19 00:56:36;;;;;;;0.22;0.22;;;;;;;6.48;100.00;94644.34;5121588;28;20223;-73
2023/10/19 00:59:12;;;;;;;1.92;1.52;;;;;;;6.51;100.00;94648.34;5112778;28;20224;-73
2023/10/19 01:01:43;;;;;;;2.63;1.25;;;;;;;6.30;100.00;94648.75;5117242;28;20197;-77
2023/10/19 01:04:14;;;;;;;3.08;1.58;;;;;;;6.15;100.00;94651.75;5118257;28;20202;-77
2023/10/19 01:06:43;;;;;;;0.20;0.20;;;;;;;6.18;100.00;94656.53;5116001;28;20261;-77
2023/10/19 01:09:14;;;;;;;3.25;1.35;;;;;;;6.11;100.00;94655.34;5117463;28;20231;-76
2023/10/19 01:11:45;;;;;;;2.40;1.63;;;;;;;6.23;100.00;94658.31;5114974;28;20318;-76
2023/10/19 01:14:22;;;;;;;2.72;1.75;;;;;;;6.39;100.00;94654.25;5117561;27;20197;-77
2023/10/19 01:16:50;;;;;;;1.02;0.30;;;;;;;6.46;100.00;94643.06;5109282;27;20308;-77
2023/10/19 01:19:18;;;;;;;0.20;0.20;;;;;;;6.53;100.00;94654.22;5115803;27;20213;-77
2023/10/19 01:21:50;;;;;;;0.20;0.20;;;;;;;6.51;100.00;94664.50;5122569;27;20216;-77
2023/10/19 01:24:21;;;;;;;1.13;0.75;;;;;;;6.29;100.00;94674.06;5127602;27;20313;-76
2023/10/19 01:26:48;;;;;;;3.97;1.58;;;;;;;6.39;100.00;94663.09;5123560;27;20866;-77
2023/10/19 01:29:17;;;;;;;1.25;0.82;;;;;;;6.50;100.00;94652.13;5120982;27;20596;-77
2023/10/19 01:31:56;;;;;;;0.20;0.20;;;;;;;6.64;100.00;94651.00;5112130;27;20272;-77
2023/10/19 01:34:23;;;;;;;0.25;0.25;;;;;;;6.71;100.00;94658.66;5130029;27;20203;-77
2023/10/19 01:36:51;;;;;;;0.50;0.50;;;;;;;6.83;100.00;94656.28;5119693;27;20213;-77
2023/10/19 01:39:20;;;;;;;0.52;0.52;;;;;;;6.89;100.00;94655.03;5098182;27;20726;-77
2023/10/19 01:41:50;;;;;;;0.30;0.30;;;;;;;6.95;100.00;94659.22;5113903;27;20212;-77
2023/10/19 01:44:16;;;;;;;0.22;0.22;;;;;;;6.97;100.00;94654.31;5126293;27;20208;-77
2023/10/19 01:46:45;;;;;;;0.85;0.85;;;;;;;6.99;100.00;94660.19;5122282;27;20204;-77
2023/10/19 01:49:11;;;;;;;0.45;0.45;;;;;;;7.06;100.00;94655.19;5116984;27;20546;-77
2023/10/19 01:51:39;;;;;;;0.45;0.45;;;;;;;7.08;100.00;94658.38;5126760;27;20216;-77
2023/10/19 01:54:06;;;;;;;0.40;0.40;;;;;;;7.21;100.00;94661.34;5126181;27;20206;-77
2023/10/19 01:56:35;;;;;;;0.98;0.98;;;;;;;7.28;100.00;94656.31;5120373;27;20209;-77
2023/10/19 01:59:03;;;;;;;0.20;0.20;;;;;;;7.32;100.00;94657.28;5128328;27;20197;-77
2023/10/19 02:01:32;;;;;;;0.52;0.52;;;;;;;7.34;100.00;94663.19;5115500;27;20206;-78
2023/10/19 02:04:00;;;;;;;0.20;0.20;;;;;;;7.41;100.00;94650.84;5119236;27;20202;-77
2023/10/19 02:06:29;;;;;;;1.55;1.45;;;;;;;7.48;100.00;94645.03;5126732;27;20201;-77
2023/10/19 02:09:00;;;;;;;0.20;0.20;;;;;;;7.43;100.00;94645.97;5132702;27;20613;-77
2023/10/19 02:11:27;;;;;;;0.30;0.30;;;;;;;7.42;100.00;94651.66;5113130;27;20201;-76
2023/10/19 02:13:59;;;;;;;0.30;0.30;;;;;;;7.45;100.00;94645.66;5117283;27;20214;-76
2023/10/19 02:16:26;;;;;;;0.20;0.20;;;;;;;7.36;100.00;94659.06;5120287;27;20315;-76
2023/10/19 02:18:53;;;;;;;0.22;0.22;;;;;;;7.34;100.00;94655.09;5123704;27;20225;-76
2023/10/19 02:21:22;;;;;;;0.93;0.68;;;;;;;7.19;100.00;94658.94;5114912;27;20644;-77
2023/10/19 02:23:50;;;;;;;0.65;0.65;;;;;;;7.22;100.00;94655.66;5112441;27;20216;-77
2023/10/19 02:26:17;;;;;;;0.63;0.63;;;;;;;7.07;100.00;94654.09;5114138;27;20205;-76
2023/10/19 02:28:44;;;;;;;0.30;0.30;;;;;;;7.12;100.00;94653.97;5111605;27;20197;-77
2023/10/19 02:31:15;;;;;;;1.35;1.00;;;;;;;7.10;100.00;94650.81;5114239;27;20587;-77
2023/10/19 02:33:46;;;;;;;0.63;0.63;;;;;;;7.12;100.00;94653.97;5111538;27;20229;-77
2023/10/19 02:36:15;;;;;;;4.28;1.58;;;;;;;7.06;100.00;94655.19;5110547;27;20346;-77
2023/10/19 02:38:43;;;;;;;0.32;0.32;;;;;;;7.16;100.00;94658.75;5114840;27;20290;-76
2023/10/19 02:41:11;;;;;;;0.57;0.57;;;;;;;7.16;100.00;94642.59;5114143;27;20282;-76
2023/10/19 02:43:37;;;;;;;0.20;0.20;;;;;;;7.12;100.00;94653.97;5112314;27;20233;-77
2023/10/19 02:46:04;;;;;;;0.45;0.45;;;;;;;7.04;100.00;94657.41;5111072;27;20219;-77
2023/10/19 02:48:32;;;;;;;0.22;0.22;;;;;;;6.97;100.00;94654.31;5113052;27;20314;-77
2023/10/19 02:51:06;;;;;;;0.20;0.20;;;;;;;7.03;100.00;94653.09;5104754;27;20306;-77
2023/10/19 02:53:33;;;;;;;0.20;0.20;;;;;;;6.98;100.00;94655.91;5113239;27;20263;-77
2023/10/19 02:56:02;;;;;;;0.57;0.57;;;;;;;7.01;100.00;94658.00;5115745;27;20197;-77
2023/10/19 02:58:28;;;;;;;0.30;0.30;;;;;;;6.86;100.00;94652.16;5123321;27;20233;-77
2023/10/19 03:00:56;;;;;;;0.20;0.20;;;;;;;6.83;100.00;94658.97;5118826;27;20198;-77
2023/10/19 03:03:21;;;;;;;0.20;0.20;;;;;;;6.85;100.00;94654.03;5110488;27;20220;-77
2023/10/19 03:05:51;;;;;;;0.20;0.20;;;;;;;6.74;100.00;94645.41;5117824;27;20205;-77
2023/10/19 03:08:19;;;;;;;3.00;0.50;;;;;;;6.81;100.00;94641.50;5124674;27;20203;-77
2023/10/19 03:10:46;;;;;;;0.98;0.95;;;;;;;6.75;100.00;94646.19;5112860;27;20653;-77
2023/10/19 03:13:15;;;;;;;0.30;0.30;;;;;;;6.74;100.00;94647.28;5111696;27;20205;-77
2023/10/19 03:15:42;;;;;;;0.65;0.65;;;;;;;6.88;100.00;94647.25;5118773;27;20209;-77
2023/10/19 03:18:09;;;;;;;0.32;0.32;;;;;;;6.90;100.00;94645.88;5117552;27;20573;-77
2023/10/19 03:20:39;;;;;;;0.50;0.50;;;;;;;6.78;100.00;94634.84;5128215;27;20212;-77
2023/10/19 03:23:10;;;;;;;0.57;0.57;;;;;;;6.88;100.00;94648.06;5120572;27;20269;-76
2023/10/19 03:25:55;;;;;;;0.30;0.30;;;;;;;6.88;100.00;94653.44;5120768;27;20224;-77
2023/10/19 03:28:25;;;;;;;0.20;0.20;;;;;;;6.94;100.00;94652.25;5121227;27;20201;-78
2023/10/19 03:30:55;;;;;;;0.65;0.60;;;;;;;6.81;100.00;94649.59;5120217;27;20657;-77
2023/10/19 03:33:27;;;;;;;0.20;0.20;;;;;;;6.68;100.00;94640.44;5120663;27;20315;-77
2023/10/19 03:35:54;;;;;;;0.80;0.47;;;;;;;6.50;100.00;94641.38;5128290;27;20193;-77
2023/10/19 03:38:22;;;;;;;0.30;0.30;;;;;;;6.47;100.00;94647.34;5119982;27;20229;-77
2023/10/19 03:40:59;;;;;;;0.43;0.43;;;;;;;6.50;100.00;94646.75;5115350;27;20304;-77
2023/10/19 03:43:27;;;;;;;0.38;0.38;;;;;;;6.46;100.00;94640.38;5116172;27;20212;-77
2023/10/19 03:45:54;;;;;;;0.30;0.30;;;;;;;6.53;100.00;94640.78;5124808;27;20194;-77
2023/10/19 03:48:26;;;;;;;0.20;0.20;;;;;;;6.50;100.00;94636.00;5115269;27;20194;-77
2023/10/19 03:50:55;;;;;;;0.68;0.68;;;;;;;6.48;100.00;94633.59;5111791;27;20285;-77
2023/10/19 03:53:24;;;;;;;0.40;0.40;;;;;;;6.41;100.00;94627.84;5123892;27;20417;-76
2023/10/19 03:55:52;;;;;;;1.35;1.27;;;;;;;6.44;100.00;94621.84;5131348;27;20209;-77
2023/10/19 03:58:20;;;;;;;0.25;0.25;;;;;;;6.38;100.00;94617.66;5117570;27;20224;-75
2023/10/19 04:00:48;;;;;;;0.75;0.75;;;;;;;6.34;100.00;94620.16;5130298;27;20212;-76
2023/10/19 04:03:17;;;;;;;1.67;1.25;;;;;;;6.43;100.00;94622.94;5116939;27;20572;-77
2023/10/19 04:05:46;;;;;;;3.40;1.13;;;;;;;6.33;100.00;94618.56;5120251;27;20316;-76
2023/10/19 04:08:16;;;;;;;0.85;0.73;;;;;;;6.28;100.00;94618.69;5129254;27;20212;-77
2023/10/19 04:11:08;;;;;;;0.70;0.70;;;;;;;6.33;100.00;94623.94;5119990;27;20674;-76
2023/10/19 04:13:36;;;;;;;4.25;2.83;;;;;;;6.32;100.00;94619.66;5118549;27;20197;-77
2023/10/19 04:16:03;;;;;;;4.55;3.15;;;;;;;6.32;100.00;94622.34;5130620;27;20272;-77
2023/10/19 04:18:30;;;;;;;6.35;3.17;;;;;;;6.33;100.00;94631.22;5122527;27;20665;-77
2023/10/19 04:20:58;;;;;;;6.45;3.25;;;;;;;6.27;100.00;94622.47;5131028;27;20648;-76
2023/10/19 04:23:28;;;;;;;6.55;3.33;;;;;;;6.14;100.00;94628.66;5130103;27;20639;-77
2023/10/19 04:26:04;;;;;;;3.72;2.40;;;;;;;5.96;100.00;94627.66;5131101;27;20196;-77
2023/10/19 04:28:33;;;;;;;7.10;3.97;;;;;;;5.98;100.00;94624.66;5112277;27;20549;-77
2023/10/19 04:31:02;;;;;;;2.72;2.13;;;;;;;6.06;100.00;94632.03;5131186;27;20212;-77
2023/10/19 04:33:30;;;;;;;6.78;3.15;;;;;;;6.08;100.00;94624.47;5118393;27;20229;-77
2023/10/19 04:35:59;;;;;;;4.65;2.40;;;;;;;5.93;100.00;94616.69;5130434;27;20208;-77
2023/10/19 04:38:27;;;;;;;4.72;2.60;;;;;;;5.86;100.00;94624.34;5112235;28;20689;-77
2023/10/19 04:40:56;;;;;;;5.03;2.63;;;;;;;5.99;100.00;94627.06;5124682;28;20721;-77
2023/10/19 04:43:23;;;;;;;4.82;2.70;;;;;;;6.06;100.00;94615.91;5097660;28;20288;-77
2023/10/19 04:45:50;;;;;;;8.57;2.83;;;;;;;6.05;100.00;94617.78;5131145;28;20239;-77
2023/10/19 04:48:17;;;;;;;8.35;3.38;;;;;;;5.98;100.00;94624.66;5130729;27;20200;-77
2023/10/19 04:50:44;;;;;;;5.72;3.25;;;;;;;6.18;100.00;94616.19;5135211;27;20212;-77
2023/10/19 04:53:10;;;;;;;5.63;3.33;;;;;;;6.35;100.00;94608.31;5135108;27;20209;-77
2023/10/19 04:55:37;;;;;;;0.35;0.35;;;;;;;6.34;100.00;94606.72;5126994;27;20217;-77
2023/10/19 04:58:06;;;;;;;2.75;1.27;;;;;;;6.31;100.00;94607.31;5129643;27;20305;-77
2023/10/19 05:00:33;;;;;;;2.17;0.70;;;;;;;6.30;100.00;94611.09;5130650;27;20637;-76
2023/10/19 05:03:01;;;;;;;0.85;0.85;;;;;;;6.33;100.00;94613.19;5116252;27;20251;-76
2023/10/19 05:05:28;;;;;;;0.13;0.13;;;;;;;6.51;100.00;94605.28;5126352;27;20235;-76
2023/10/19 05:07:55;;;;;;;0.35;0.35;;;;;;;6.68;100.00;94605.47;5116938;27;20209;-76
2023/10/19 05:10:22;;;;;;;0.20;0.20;;;;;;;6.79;100.00;94601.44;5125915;27;20202;-78
2023/10/19 05:12:49;;;;;;;0.47;0.47;;;;;;;7.00;100.00;94610.63;5129713;27;20243;-76
2023/10/19 05:15:18;;;;;;;0.35;0.35;;;;;;;7.58;100.00;94619.72;5135023;27;20836;-77
2023/10/19 05:17:45;;;;;;;1.75;0.75;;;;;;;8.14;100.00;94610.94;5125677;27;20670;-76
2023/10/19 05:20:12;;;;;;;0.57;0.57;;;;;;;8.62;100.00;94618.22;5125429;27;20212;-76
2023/10/19 05:22:40;;;;;;;0.20;0.20;;;;;;;8.85;100.00;94617.00;5130855;27;20201;-77
2023/10/19 05:25:07;;;;;;;0.43;0.43;;;;;;;9.11;100.00;94615.13;5134408;27;20236;-77
2023/10/19 05:27:34;;;;;;;0.30;0.30;;;;;;;9.52;100.00;94603.00;5134394;27;20644;-77
2023/10/19 05:30:02;;;;;;;0.60;0.60;;;;;;;9.71;100.00;94600.69;5123439;27;20234;-77
2023/10/19 05:32:30;;;;;;;0.63;0.63;;;;;;;9.85;100.00;94606.72;5130746;27;20261;-76
2023/10/19 05:34:57;;;;;;;0.68;0.32;;;;;;;10.55;100.00;94608.03;5133974;27;20227;-76
2023/10/19 05:37:25;;;;;;;0.30;0.30;;;;;;;11.29;100.00;94603.84;5129281;27;20666;-77
2023/10/19 05:39:52;;;;;;;0.38;0.38;;;;;;;12.01;100.00;94595.16;5125168;27;20233;-76
2023/10/19 05:42:20;;;;;;;0.85;0.85;;;;;;;12.25;100.00;94596.31;5119080;27;20231;-76
2023/10/19 05:44:47;;;;;;;0.38;0.38;;;;;;;12.33;100.00;94603.56;5111937;27;20259;-76
2023/10/19 05:47:13;;;;;;;0.77;0.75;;;;;;;12.90;100.00;94603.41;5118698;27;20205;-78
2023/10/19 05:49:42;;;;;;;0.95;0.95;;;;;;;12.45;100.00;94611.72;5133737;27;20207;-78
2023/10/19 05:52:09;;;;;;;0.95;0.88;;;;;;;11.93;100.00;94614.25;5120283;27;20213;-75
2023/10/19 05:54:37;;;;;;;1.67;1.10;;;;;;;12.08;100.00;94608.97;5133012;27;20211;-76
2023/10/19 05:57:08;;;;;;;0.68;0.60;;;;;;;11.67;100.00;94615.28;5127527;27;20210;-76
2023/10/19 05:59:35;;;;;;;0.40;0.40;;;;;;;11.40;100.00;94616.66;5113807;27;20668;-75
2023/10/19 06:02:02;;;;;;;0.60;0.60;;;;;;;11.30;100.00;94611.66;5133382;27;20683;-75
2023/10/19 06:04:31;;;;;;;1.30;1.13;;;;;;;11.23;100.00;94616.00;5132802;27;20229;-76
2023/10/19 06:07:00;;;;;;;1.33;1.30;;;;;;;11.41;100.00;94617.44;5133745;27;20573;-75
2023/10/19 06:09:30;;;;;;;0.22;0.22;;;;;;;11.17;100.00;94618.13;5131366;27;20209;-74
2023/10/19 06:11:57;;;;;;;0.40;0.40;;;;;;;10.71;100.00;94631.84;5120368;27;20730;-75
2023/10/19 06:14:23;;;;;;;1.02;0.88;;;;;;;10.50;100.00;94621.78;5132734;27;20797;-75
2023/10/19 06:16:52;;;;;;;1.45;1.35;;;;;;;10.90;100.00;94615.94;5129695;27;20205;-75
2023/10/19 06:19:19;;;;;;;1.23;0.82;;;;;;;11.02;100.00;94624.94;5127671;27;20220;-75
2023/10/19 06:21:46;;;;;;;1.38;1.25;;;;;;;11.25;100.00;94619.97;5132785;27;20510;-75
2023/10/19 06:24:14;;;;;;;0.63;0.63;;;;;;;10.74;100.00;94610.31;5132823;27;20208;-74
2023/10/19 06:26:43;;;;;;;1.35;0.80;;;;;;;10.45;100.00;94621.94;5132398;27;20228;-75
2023/10/19 06:29:10;;;;;;;0.40;0.40;;;;;;;10.73;100.00;94618.75;5118875;27;20234;-74
2023/10/19 06:31:37;;;;;;;0.60;0.60;;;;;;;10.95;100.00;94619.25;5122314;27;21088;-75
2023/10/19 06:34:04;;;;;;;0.45;0.45;;;;;;;11.24;100.00;94607.53;5129705;27;20216;-76
2023/10/19 06:36:31;;;;;;;0.22;0.22;;;;;;;10.95;100.00;94610.31;5132681;27;20593;-75
2023/10/19 06:38:57;;;;;;;1.90;1.58;;;;;;;11.25;100.00;94614.56;5119279;27;20625;-75
2023/10/19 06:41:26;;;;;;;0.40;0.40;;;;;;;11.14;100.00;94612.56;5132118;27;20216;-76
2023/10/19 06:43:52;;;;;;;1.10;1.10;;;;;;;10.82;100.00;94616.78;5124916;27;20197;-74
2023/10/19 06:46:21;;;;;;;2.45;1.08;;;;;;;11.03;100.00;94617.59;5127452;27;20209;-76
2023/10/19 06:48:48;;;;;;;0.32;0.32;;;;;;;10.93;100.00;94615.31;5115128;27;20205;-75
2023/10/19 06:51:16;;;;;;;0.20;0.20;;;;;;;11.03;100.00;94623.81;5131496;27;20213;-74
2023/10/19 06:53:43;;;;;;;0.20;0.20;;;;;;;10.78;100.00;94615.88;5131046;27;20660;-75
2023/10/19 06:56:10;;;;;;;0.47;0.47;;;;;;;10.92;100.00;94616.41;5119088;27;20239;-73
2023/10/19 06:58:39;;;;;;;0.30;0.30;;;;;;;11.22;100.00;94609.78;5131500;27;20379;-75
2023/10/19 07:01:09;;;;;;;0.30;0.30;;;;;;;11.27;100.00;94598.75;5132068;27;20204;-76
2023/10/19 07:03:35;;;;;;;0.10;0.10;;;;;;;11.40;100.00;94599.59;5115152;27;20208;-76
2023/10/19 07:06:02;;;;;;;0.30;0.30;;;;;;;11.59;100.00;94607.25;5117337;27;20289;-76
2023/10/19 07:08:29;;;;;;;0.40;0.40;;;;;;;12.07;100.00;94591.09;5127269;27;20213;-76
2023/10/19 07:10:56;;;;;;;0.20;0.20;;;;;;;11.99;100.00;94580.34;5129460;27;20212;-75
2023/10/19 07:13:23;;;;;;;0.75;0.73;;;;;;;11.95;100.00;94598.44;5116173;27;20205;-76
2023/10/19 07:15:51;;;;;;;1.40;0.68;;;;;;;12.69;100.00;94603.56;5119253;27;20261;-75
2023/10/19 07:18:18;;;;;;;0.57;0.57;;;;;;;13.11;100.00;94598.63;5113655;27;20304;-76
2023/10/19 07:20:48;;;;;;;0.30;0.30;;;;;;;13.28;100.00;94603.00;5121115;27;20215;-76
2023/10/19 07:23:19;;;;;;;0.35;0.35;;;;;;;13.22;100.00;94601.69;5115406;27;20216;-75
2023/10/19 07:25:47;;;;;;;0.52;0.40;;;;;;;13.08;100.00;94603.97;5112197;27;20292;-75
2023/10/19 07:28:15;;;;;;;1.88;1.73;;;;;;;12.77;100.00;94597.22;5111026;27;20312;-77
2023/10/19 07:30:43;;;;;;;0.63;0.63;;;;;;;12.98;100.00;94601.72;5113737;27;20572;-76
2023/10/19 07:33:17;;;;;;;0.20;0.20;;;;;;;13.29;100.00;94585.56;5129976;27;20616;-76
2023/10/19 07:35:46;;;;;;;0.20;0.20;;;;;;;13.09;100.00;94603.63;5131712;27;20725;-74
2023/10/19 07:38:14;;;;;;;0.40;0.40;;;;;;;13.32;100.00;94595.75;5129406;27;20209;-75
2023/10/19 07:40:41;;;;;;;2.60;1.13;;;;;;;13.55;100.00;94598.72;5107548;28;20225;-74
2023/10/19 07:43:08;;;;;;;0.50;0.50;;;;;;;13.85;100.00;94596.41;5115411;27;20567;-76
2023/10/19 07:45:36;;;;;;;0.20;0.20;;;;;;;14.09;100.00;94601.72;5123674;27;20205;-75
2023/10/19 07:48:07;;;;;;;0.43;0.43;;;;;;;13.95;100.00;94606.81;5117839;27;20556;-76
2023/10/19 07:50:36;;;;;;;0.30;0.30;;;;;;;14.27;100.00;94601.38;5131309;27;20213;-76
2023/10/19 07:53:04;;;;;;;0.38;0.38;;;;;;;13.11;100.00;94611.44;5131134;27;20300;-75
2023/10/19 07:55:32;;;;;;;0.30;0.30;;;;;;;12.56;100.00;94612.88;5125621;27;20206;-76
2023/10/19 07:58:01;;;;;;;0.20;0.20;;;;;;;12.57;100.00;94603.59;5126512;27;20665;-74
2023/10/19 08:00:29;;;;;;;2.20;1.30;;;;;;;12.88;100.00;94599.44;5130807;27;20254;-75
2023/10/19 08:02:56;;;;;;;1.38;0.70;;;;;;;12.88;100.00;94600.25;5131160;27;20265;-74
2023/10/19 08:05:23;;;;;;;0.50;0.50;;;;;;;13.44;100.00;94608.53;5131171;27;20208;-73
2023/10/19 08:07:51;;;;;;;0.40;0.40;;;;;;;13.47;100.00;94608.63;5131107;27;20614;-75
2023/10/19 08:10:20;;;;;;;1.27;1.17;;;;;;;13.46;100.00;94606.25;5131075;27;20204;-75
2023/10/19 08:12:50;;;;;;;1.27;1.17;;;;;;;12.70;100.00;94607.88;5130765;27;20201;-74
2023/10/19 08:15:18;;;;;;;0.80;0.65;;;;;;;12.67;100.00;94610.47;5131456;27;20604;-77
2023/10/19 08:17:46;;;;;;;0.40;0.40;;;;;;;12.51;100.00;94604.13;5118810;27;20231;-75
2023/10/19 08:20:22;;;;;;;0.63;0.63;;;;;;;12.52;100.00;94606.53;5122587;27;20231;-77
2023/10/19 08:22:51;;;;;;;1.45;1.00;;;;;;;12.93;100.00;94599.22;5129593;27;20208;-78
2023/10/19 08:25:18;;;;;;;2.35;0.85;;;;;;;13.39;100.00;94593.22;5129698;27;20208;-77
2023/10/19 08:27:48;;;;;;;0.20;0.20;;;;;;;13.56;100.00;94596.78;5130143;27;20628;-78
2023/10/19 08:30:17;;;;;;;0.20;0.20;;;;;;;13.80;100.00;94596.69;5129540;27;20209;-78
2023/10/19 08:32:47;;;;;;;2.55;1.05;;;;;;;14.10;100.00;94597.84;5129898;27;20244;-77
2023/10/19 08:35:18;;;;;;;0.32;0.32;;;;;;;13.65;100.00;94602.91;5130238;27;20391;-77
2023/10/19 08:37:45;;;;;;;3.40;1.00;;;;;;;13.59;100.00;94599.63;5130153;27;20981;-78
2023/10/19 08:40:15;;;;;;;1.27;0.80;;;;;;;13.32;100.00;94605.84;5129779;28;20237;-78
2023/10/19 08:42:42;;;;;;;0.65;0.65;;;;;;;13.38;100.00;94597.09;5130041;28;20209;-78
2023/10/19 08:45:12;;;;;;;0.82;0.77;;;;;;;13.45;100.00;94613.63;5130592;28;20211;-78
2023/10/19 08:47:47;;;;;;;0.38;0.38;;;;;;;13.49;100.00;94606.34;5119301;28;20220;-78
2023/10/19 08:50:15;;;;;;;2.75;1.92;;;;;;;13.67;100.00;94611.47;5128499;28;20529;-78
2023/10/19 08:52:42;;;;;;;0.63;0.63;;;;;;;13.76;100.00;94595.81;5129861;28;20209;-78
2023/10/19 08:55:12;;;;;;;0.55;0.55;;;;;;;13.66;100.00;94594.38;5129752;28;20216;-78
2023/10/19 08:57:42;;;;;;;0.50;0.50;;;;;;;14.01;100.00;94608.13;5129777;28;20572;-78
2023/10/19 09:00:11;;;;;;;0.43;0.35;;;;;;;13.91;100.00;94605.94;5102934;28;20239;-77
2023/10/19 09:02:38;;;;;;;0.60;0.60;;;;;;;14.48;100.00;94602.75;5130170;28;20540;-77
2023/10/19 09:05:08;;;;;;;4.05;3.05;;;;;;;14.21;100.00;94604.38;5129554;28;20521;-78
2023/10/19 09:07:36;;;;;;;1.10;0.95;;;;;;;14.51;100.00;94598.50;5129895;28;20729;-78
2023/10/19 09:10:05;;;;;;;13.30;1.35;;;;;;;15.14;100.00;94579.31;5130194;28;20207;-79
2023/10/19 09:12:32;;;;;;;0.30;0.30;;;;;;;15.36;100.00;94577.81;5130206;28;20205;-78
2023/10/19 09:15:01;;;;;;;0.50;0.50;;;;;;;15.12;100.00;94576.16;5129635;28;20301;-78
2023/10/19 09:17:31;;;;;;;2.40;0.93;;;;;;;15.23;100.00;94574.44;5118765;28;20267;-77
2023/10/19 09:19:59;;;;;;;1.63;0.50;;;;;;;15.21;67.86;94574.00;5130043;28;20316;-77
2023/10/19 09:22:26;;;;;;;0.50;0.50;;;;;;;14.46;69.85;94571.53;5126484;28;20216;-77
2023/10/19 09:24:55;;;;;;;0.40;0.35;;;;;;;15.13;68.94;94562.16;5119654;28;20257;-78
2023/10/19 09:27:22;;;;;;;0.75;0.75;;;;;;;15.66;66.43;94542.53;5130490;28;20213;-78
2023/10/19 09:29:51;;;;;;;0.70;0.65;;;;;;;16.04;64.93;94547.13;5130429;28;20789;-77
2023/10/19 09:32:19;;;;;;;0.52;0.52;;;;;;;15.83;65.50;94550.28;5130038;27;20248;-77
2023/10/19 09:34:47;;;;;;;0.30;0.30;;;;;;;15.83;64.84;94540.16;5130264;27;20229;-78
2023/10/19 09:37:17;;;;;;;0.20;0.20;;;;;;;15.68;65.36;94545.72;5134201;27;20213;-78
2023/10/19 09:39:45;;;;;;;0.10;0.10;;;;;;;15.95;65.10;94531.00;5134242;27;20232;-78
2023/10/19 09:42:16;;;;;;;0.45;0.45;;;;;;;15.92;65.13;94520.78;5121433;27;20300;-79
2023/10/19 09:44:45;;;;;;;0.68;0.68;;;;;;;16.14;64.97;94528.19;5134480;27;20563;-78
2023/10/19 09:47:24;;;;;;;3.90;2.00;;;;;;;16.19;64.10;94519.69;5127929;27;20280;-79
2023/10/19 09:49:50;;;;;;;0.70;0.70;;;;;;;15.62;65.20;94526.88;5126592;27;20201;-78
2023/10/19 09:52:18;;;;;;;0.60;0.60;;;;;;;15.12;66.79;94516.13;5122615;27;20248;-78
2023/10/19 09:54:53;;;;;;;0.35;0.35;;;;;;;15.03;67.04;94508.16;5133351;27;20227;-78
2023/10/19 09:57:28;;;;;;;2.15;1.60;;;;;;;15.52;66.59;94508.34;5134440;27;20569;-79
2023/10/19 10:00:07;;;;;;;0.60;0.60;;;;;;;15.88;66.93;94520.72;5120567;27;20212;-78
2023/10/19 10:02:36;;;;;;;0.60;0.43;;;;;;;16.21;64.60;94511.91;5133899;27;20287;-79
2023/10/19 10:05:04;;;;;;;1.17;1.08;;;;;;;16.31;63.96;94505.81;5133903;27;20664;-79
2023/10/19 10:07:31;;;;;;;0.22;0.22;;;;;;;15.89;65.75;94505.13;5133640;27;20205;-79
2023/10/19 10:09:59;;;;;;;0.73;0.73;;;;;;;15.57;67.32;94505.34;5133044;27;20297;-77
2023/10/19 10:12:28;;;;;;;0.60;0.60;;;;;;;15.49;67.55;94500.06;5119724;27;20308;-77
2023/10/19 10:15:07;;;;;;;0.73;0.73;;;;;;;15.54;67.79;94497.06;5133889;27;20297;-80
2023/10/19 10:17:37;;;;;;;0.70;0.70;;;;;;;15.92;66.81;94498.94;5121401;27;20719;-80
2023/10/19 10:20:34;;;;;;;1.42;1.10;;;;;;;16.39;66.14;94490.34;5133727;27;20233;-80
2023/10/19 10:23:21;;;;;;;2.63;1.75;;;;;;;16.47;65.18;94488.47;5133873;27;20216;-79
2023/10/19 10:25:48;;;;;;;0.60;0.52;;;;;;;16.12;65.77;94475.84;5133188;27;20254;-79
2023/10/19 10:28:15;;;;;;;0.25;0.25;;;;;;;15.87;66.83;94480.09;5122870;27;20244;-79
2023/10/19 10:31:10;;;;;;;3.42;2.05;;;;;;;15.94;66.30;94472.03;5130130;27;20231;-79
2023/10/19 10:33:44;;;;;;;4.82;1.00;;;;;;;15.78;67.32;94474.88;5132910;27;20799;-79
2023/10/19 10:36:12;;;;;;;2.95;1.98;;;;;;;16.04;66.41;94456.97;5133374;27;20212;-79
2023/10/19 10:38:40;;;;;;;3.50;2.10;;;;;;;16.53;65.86;94457.72;5133135;27;20633;-79
2023/10/19 10:41:09;;;;;;;2.58;2.00;;;;;;;16.66;64.18;94450.13;5133592;27;20340;-78
2023/10/19 10:43:53;;;;;;;0.75;0.45;;;;;;;16.52;64.74;94444.44;5133483;27;20275;-79
2023/10/19 10:46:22;;;;;;;0.68;0.68;;;;;;;16.38;64.89;94441.47;5132979;27;20246;-79
2023/10/19 10:48:51;;;;;;;0.20;0.20;;;;;;;16.47;64.61;94431.06;5119872;27;20243;-79
2023/10/19 10:51:19;;;;;;;0.30;0.30;;;;;;;16.76;64.12;94433.06;5133267;27;20205;-79
2023/10/19 10:53:49;;;;;;;2.00;0.82;;;;;;;16.93;63.41;94429.75;5119420;27;20265;-79
2023/10/19 10:56:16;;;;;;;0.30;0.30;;;;;;;17.18;62.70;94426.53;5132951;27;20615;-79
2023/10/19 10:58:42;;;;;;;0.30;0.30;;;;;;;17.12;62.43;94417.06;5132346;27;20531;-79
2023/10/19 11:01:10;;;;;;;1.15;1.05;;;;;;;17.29;62.38;94421.94;5132704;27;20573;-79
2023/10/19 11:03:37;;;;;;;0.45;0.45;;;;;;;17.48;62.54;94408.06;5132573;27;20327;-79
2023/10/19 11:06:07;;;;;;;4.35;1.33;;;;;;;17.72;62.04;94402.06;5132854;27;20212;-79
2023/10/19 11:08:35;;;;;;;0.95;0.40;;;;;;;17.86;61.08;94397.84;5123819;27;20288;-79
2023/10/19 11:11:10;;;;;;;0.80;0.65;;;;;;;17.95;60.19;94387.34;5128528;27;20205;-79
2023/10/19 11:13:38;;;;;;;0.82;0.82;;;;;;;17.47;61.41;94390.06;5132537;27;20196;-79
2023/10/19 11:16:06;;;;;;;1.55;0.35;;;;;;;17.76;60.84;94377.44;5130748;27;20201;-79
2023/10/19 11:18:37;;;;;;;2.97;2.03;;;;;;;17.91;60.77;94378.31;5114649;27;20678;-78
2023/10/19 11:21:09;;;;;;;2.50;1.88;;;;;;;18.03;60.96;94372.56;5111801;27;20304;-78
2023/10/19 11:23:40;;;;;;;3.92;1.63;;;;;;;17.96;60.06;94377.97;5123899;27;20285;-78
2023/10/19 11:26:08;;;;;;;0.93;0.75;;;;;;;18.22;59.68;94371.47;5131925;27;20257;-79
2023/10/19 11:28:38;;;;;;;3.45;2.13;;;;;;;18.09;60.26;94360.03;5121531;27;20712;-78
2023/10/19 11:31:12;;;;;;;1.88;1.35;;;;;;;18.00;59.81;94362.34;5106819;27;20741;-76
2023/10/19 11:33:39;;;;;;;2.45;1.80;;;;;;;18.02;59.92;94354.53;5112508;27;20241;-78
2023/10/19 11:36:08;;;;;;;4.72;2.08;;;;;;;18.30;59.63;94354.72;5118756;27;20296;-78
2023/10/19 11:38:35;;;;;;;1.85;1.50;;;;;;;18.35;58.72;94346.09;5126609;27;20201;-78
2023/10/19 11:41:03;;;;;;;2.15;1.42;;;;;;;18.10;59.60;94336.94;5132315;27;20225;-78
2023/10/19 11:43:31;;;;;;;2.33;1.67;;;;;;;17.93;60.79;94346.63;5131804;27;20325;-78
2023/10/19 11:45:58;;;;;;;6.05;2.17;;;;;;;17.68;61.88;94340.97;5130002;27;20344;-78